Station Historical Data
Daily Summary for May 11, 2017 Units:  English    Metric   Both
« Previous Day
Next Day »
Daily Weekly Monthly Yearly Custom
  High: Low: Average:
Temperature: 66.7 °F 47.7 °F 56.2 °F
Dew Point: 53.8 °F 43.4 °F 48.4 °F
Humidity: 88 % 59 % 76 %
Wind Speed: 11.0 mph 0.0 mph 2.6 mph
Wind Gust: 17.0 mph - -
Wind:- - South
Pressure: 30.11 in 30.05 in -
Precipitation: 0.00 in    
Historical Graphs
 
 
Tabular Data for May 11, 2017
Time Temperature Dew Point Pressure Wind Wind Speed Wind Gust Humidity Rainfall Rate (Hourly) solar
00:02 54.7 °F 48.7 °F 30.06 in Calm     80 % 0.00 in 0.00 W/m2
00:07 54.6 °F 48.6 °F 30.06 in SSE 7.0 mph 7.0 mph 80 % 0.00 in 0.00 W/m2
00:08 54.6 °F 48.6 °F 30.06 in Calm   8.0 mph 80 % 0.00 in 0.00 W/m2
00:13 54.3 °F 48.3 °F 30.06 in Calm   10.0 mph 80 % 0.00 in 0.00 W/m2
00:18 54.0 °F 48.0 °F 30.06 in SSE 2.0 mph 6.0 mph 80 % 0.00 in 0.00 W/m2
00:23 53.8 °F 48.1 °F 30.06 in SSE 5.0 mph 13.0 mph 81 % 0.00 in 0.00 W/m2
00:28 53.6 °F 47.9 °F 30.06 in SSE 9.0 mph 9.0 mph 81 % 0.00 in 0.00 W/m2
00:33 53.5 °F 47.5 °F 30.06 in SSE 6.0 mph 8.0 mph 80 % 0.00 in 0.00 W/m2
00:38 53.3 °F 47.3 °F 30.05 in SSE 6.0 mph 10.0 mph 80 % 0.00 in 0.00 W/m2
00:43 53.2 °F 47.2 °F 30.06 in SSE 11.0 mph 12.0 mph 80 % 0.00 in 0.00 W/m2
00:48 53.1 °F 47.1 °F 30.06 in Calm   10.0 mph 80 % 0.00 in 0.00 W/m2
00:53 52.9 °F 46.9 °F 30.06 in Calm   12.0 mph 80 % 0.00 in 0.00 W/m2
00:58 52.8 °F 46.8 °F 30.06 in SSE 7.0 mph 13.0 mph 80 % 0.00 in 0.00 W/m2
01:03 52.7 °F 46.7 °F 30.05 in Calm   12.0 mph 80 % 0.00 in 0.00 W/m2
01:08 52.6 °F 46.6 °F 30.06 in SSE 2.0 mph 9.0 mph 80 % 0.00 in 0.00 W/m2
01:13 52.5 °F 46.8 °F 30.06 in SSE 6.0 mph 9.0 mph 81 % 0.00 in 0.00 W/m2
01:18 52.4 °F 46.8 °F 30.06 in Calm   14.0 mph 81 % 0.00 in 0.00 W/m2
01:23 52.3 °F 46.7 °F 30.06 in SSE 2.0 mph 9.0 mph 81 % 0.00 in 0.00 W/m2
01:28 52.3 °F 47.0 °F 30.06 in SSE 5.0 mph 10.0 mph 82 % 0.00 in 0.00 W/m2
01:33 52.2 °F 46.9 °F 30.06 in Calm   2.0 mph 82 % 0.00 in 0.00 W/m2
01:38 52.2 °F 46.9 °F 30.07 in Calm     82 % 0.00 in 0.00 W/m2
01:43 52.1 °F 46.8 °F 30.07 in South 5.0 mph 8.0 mph 82 % 0.00 in 0.00 W/m2
01:48 52.0 °F 46.7 °F 30.07 in South 4.0 mph 8.0 mph 82 % 0.00 in 0.00 W/m2
01:53 51.9 °F 46.6 °F 30.07 in South 2.0 mph 6.0 mph 82 % 0.00 in 0.00 W/m2
01:58 51.9 °F 46.6 °F 30.06 in SSE 11.0 mph 13.0 mph 82 % 0.00 in 0.00 W/m2
02:03 51.8 °F 46.5 °F 30.06 in SSE 7.0 mph 12.0 mph 82 % 0.00 in 0.00 W/m2
02:08 51.7 °F 46.4 °F 30.06 in SSE 6.0 mph 9.0 mph 82 % 0.00 in 0.00 W/m2
02:13 51.7 °F 46.4 °F 30.06 in SSE 7.0 mph 12.0 mph 82 % 0.00 in 0.00 W/m2
02:18 51.6 °F 46.3 °F 30.06 in SE 7.0 mph 11.0 mph 82 % 0.00 in 0.00 W/m2
03:06 51.2 °F 45.9 °F 30.07 in SE 2.0 mph 2.0 mph 82 % 0.00 in 0.00 W/m2
03:11 51.2 °F 46.2 °F 30.07 in Calm   5.0 mph 83 % 0.00 in 0.00 W/m2
03:16 51.1 °F 46.1 °F 30.07 in Calm     83 % 0.00 in 0.00 W/m2
03:21 51.2 °F 46.2 °F 30.08 in Calm     83 % 0.00 in 0.00 W/m2
03:26 51.1 °F 46.1 °F 30.08 in Calm     83 % 0.00 in 0.00 W/m2
03:31 51.1 °F 46.1 °F 30.08 in Calm     83 % 0.00 in 0.00 W/m2
03:36 51.0 °F 46.0 °F 30.07 in Calm     83 % 0.00 in 0.00 W/m2
03:41 51.0 °F 45.7 °F 30.08 in SE 5.0 mph 5.0 mph 82 % 0.00 in 0.00 W/m2
03:46 50.9 °F 45.6 °F 30.08 in SE 2.0 mph 6.0 mph 82 % 0.00 in 0.00 W/m2
03:51 50.8 °F 45.5 °F 30.08 in SSE 4.0 mph 6.0 mph 82 % 0.00 in 0.00 W/m2
03:56 50.8 °F 45.5 °F 30.08 in SSE 4.0 mph 5.0 mph 82 % 0.00 in 0.00 W/m2
04:01 50.7 °F 45.4 °F 30.08 in SSE 1.0 mph 4.0 mph 82 % 0.00 in 0.00 W/m2
04:06 50.6 °F 45.3 °F 30.08 in Calm     82 % 0.00 in 0.00 W/m2
04:11 50.5 °F 45.2 °F 30.08 in Calm     82 % 0.00 in 0.00 W/m2
04:16 50.4 °F 45.1 °F 30.08 in Calm     82 % 0.00 in 0.00 W/m2
04:21 50.3 °F 45.0 °F 30.08 in Calm     82 % 0.00 in 0.00 W/m2
04:22 50.3 °F 45.0 °F 30.08 in Calm     82 % 0.00 in 0.00 W/m2
04:27 50.2 °F 44.9 °F 30.08 in Calm     82 % 0.00 in 0.00 W/m2
04:32 50.0 °F 45.0 °F 30.08 in Calm     83 % 0.00 in 0.00 W/m2
04:37 49.9 °F 45.0 °F 30.08 in Calm     83 % 0.00 in 0.00 W/m2
04:42 49.8 °F 44.8 °F 30.08 in SSE 6.0 mph 7.0 mph 83 % 0.00 in 0.00 W/m2
04:47 49.7 °F 44.8 °F 30.08 in SSE 4.0 mph 6.0 mph 83 % 0.00 in 0.00 W/m2
04:52 49.6 °F 45.0 °F 30.08 in SSE 4.0 mph 7.0 mph 84 % 0.00 in 0.00 W/m2
04:57 49.6 °F 45.0 °F 30.08 in SSE 5.0 mph 8.0 mph 84 % 0.00 in 0.00 W/m2
05:02 49.5 °F 44.9 °F 30.08 in SSE 9.0 mph 9.0 mph 84 % 0.00 in 0.00 W/m2
05:07 49.3 °F 44.7 °F 30.08 in Calm   4.0 mph 84 % 0.00 in 0.00 W/m2
05:12 49.2 °F 44.6 °F 30.08 in SSE 1.0 mph 2.0 mph 84 % 0.00 in 0.00 W/m2
05:18 49.1 °F 44.5 °F 30.08 in SSE 1.0 mph 5.0 mph 84 % 0.00 in 0.00 W/m2
05:23 49.0 °F 44.4 °F 30.08 in SSE 1.0 mph 4.0 mph 84 % 0.00 in 0.00 W/m2
05:28 49.0 °F 44.4 °F 30.08 in Calm   1.0 mph 84 % 0.00 in 0.00 W/m2
05:33 48.8 °F 44.2 °F 30.08 in SSE 1.0 mph 2.0 mph 84 % 0.00 in 0.00 W/m2
05:38 48.7 °F 44.1 °F 30.09 in Calm   1.0 mph 84 % 0.00 in 0.00 W/m2
05:43 48.7 °F 44.1 °F 30.09 in SSE 1.0 mph 1.0 mph 84 % 0.00 in 0.00 W/m2
05:48 48.5 °F 43.9 °F 30.09 in SSE 1.0 mph 2.0 mph 84 % 0.00 in 0.00 W/m2
05:53 48.4 °F 43.8 °F 30.09 in Calm   2.0 mph 84 % 0.00 in 5.00 W/m2
05:58 48.3 °F 43.7 °F 30.09 in Calm   2.0 mph 84 % 0.00 in 7.00 W/m2
06:03 48.2 °F 43.9 °F 30.09 in SSE 1.0 mph 1.0 mph 85 % 0.00 in 9.00 W/m2
06:08 48.0 °F 43.4 °F 30.09 in SSE 4.0 mph 4.0 mph 84 % 0.00 in 12.00 W/m2
06:13 47.9 °F 43.6 °F 30.10 in SSE 1.0 mph 4.0 mph 85 % 0.00 in 16.00 W/m2
06:18 47.8 °F 43.5 °F 30.09 in SSE 2.0 mph 4.0 mph 85 % 0.00 in 19.00 W/m2
06:23 47.8 °F 43.5 °F 30.09 in SSE 2.0 mph 4.0 mph 85 % 0.00 in 25.00 W/m2
06:28 47.7 °F 43.4 °F 30.09 in Calm   4.0 mph 85 % 0.00 in 32.00 W/m2
06:33 47.7 °F 43.4 °F 30.10 in SE 1.0 mph 5.0 mph 85 % 0.00 in 42.00 W/m2
06:38 47.7 °F 43.7 °F 30.09 in SE 6.0 mph 6.0 mph 86 % 0.00 in 53.00 W/m2
06:43 47.7 °F 43.7 °F 30.09 in SE 1.0 mph 6.0 mph 86 % 0.00 in 65.00 W/m2
06:48 47.8 °F 43.8 °F 30.09 in SE 5.0 mph 9.0 mph 86 % 0.00 in 81.00 W/m2
06:53 47.8 °F 43.8 °F 30.09 in SE 5.0 mph 7.0 mph 86 % 0.00 in 95.00 W/m2
06:58 47.8 °F 43.8 °F 30.10 in Calm   4.0 mph 86 % 0.00 in 116.00 W/m2
07:03 47.9 °F 43.9 °F 30.09 in SE 4.0 mph 8.0 mph 86 % 0.00 in 130.00 W/m2
07:08 48.0 °F 44.0 °F 30.09 in Calm   5.0 mph 86 % 0.00 in 149.00 W/m2
07:13 48.1 °F 44.1 °F 30.10 in Calm   6.0 mph 86 % 0.00 in 141.00 W/m2
07:18 48.2 °F 44.2 °F 30.10 in Calm   2.0 mph 86 % 0.00 in 190.00 W/m2
07:23 48.4 °F 44.4 °F 30.10 in SE 1.0 mph 5.0 mph 86 % 0.00 in 207.00 W/m2
07:28 48.5 °F 44.5 °F 30.10 in Calm   5.0 mph 86 % 0.00 in 214.00 W/m2
07:33 48.6 °F 44.6 °F 30.10 in SE 8.0 mph 8.0 mph 86 % 0.00 in 186.00 W/m2
07:38 48.7 °F 44.7 °F 30.10 in SE 5.0 mph 8.0 mph 86 % 0.00 in 204.00 W/m2
07:43 48.9 °F 44.9 °F 30.10 in SE 2.0 mph 6.0 mph 86 % 0.00 in 199.00 W/m2
07:48 49.1 °F 45.4 °F 30.10 in Calm   7.0 mph 87 % 0.00 in 272.00 W/m2
07:53 49.3 °F 45.6 °F 30.10 in Calm   2.0 mph 87 % 0.00 in 318.00 W/m2
07:58 49.5 °F 45.8 °F 30.10 in SE 5.0 mph 6.0 mph 87 % 0.00 in 332.00 W/m2
08:03 49.7 °F 46.0 °F 30.10 in SE 2.0 mph 5.0 mph 87 % 0.00 in 350.00 W/m2
08:08 49.9 °F 46.2 °F 30.11 in Calm   7.0 mph 87 % 0.00 in 371.00 W/m2
08:13 50.0 °F 46.6 °F 30.11 in South 6.0 mph 8.0 mph 88 % 0.00 in 385.00 W/m2
08:18 50.1 °F 46.4 °F 30.11 in South 4.0 mph 7.0 mph 87 % 0.00 in 404.00 W/m2
08:23 50.3 °F 46.6 °F 30.11 in South 6.0 mph 8.0 mph 87 % 0.00 in 418.00 W/m2
08:28 50.5 °F 46.8 °F 30.11 in South 4.0 mph 7.0 mph 87 % 0.00 in 438.00 W/m2
08:33 50.6 °F 46.6 °F 30.11 in SSE 6.0 mph 9.0 mph 86 % 0.00 in 452.00 W/m2
08:38 50.8 °F 46.5 °F 30.11 in SSE 6.0 mph 7.0 mph 85 % 0.00 in 466.00 W/m2
08:44 50.9 °F 46.6 °F 30.11 in SSE 6.0 mph 9.0 mph 85 % 0.00 in 482.00 W/m2
08:49 51.1 °F 46.4 °F 30.11 in Calm   7.0 mph 84 % 0.00 in 497.00 W/m2
08:54 51.3 °F 46.6 °F 30.11 in SSE 8.0 mph 9.0 mph 84 % 0.00 in 515.00 W/m2
08:59 51.4 °F 46.4 °F 30.11 in SSE 7.0 mph 8.0 mph 83 % 0.00 in 531.00 W/m2
09:04 51.6 °F 46.9 °F 30.11 in Calm   9.0 mph 84 % 0.00 in 541.00 W/m2
09:09 51.8 °F 46.8 °F 30.11 in Calm   6.0 mph 83 % 0.00 in 564.00 W/m2
09:14 52.1 °F 47.1 °F 30.11 in South 2.0 mph 8.0 mph 83 % 0.00 in 580.00 W/m2
09:19 52.2 °F 47.2 °F 30.11 in South 5.0 mph 9.0 mph 83 % 0.00 in 594.00 W/m2
09:24 52.4 °F 47.1 °F 30.11 in South 5.0 mph 11.0 mph 82 % 0.00 in 610.00 W/m2
09:29 52.7 °F 47.4 °F 30.11 in South 2.0 mph 2.0 mph 82 % 0.00 in 622.00 W/m2
09:34 53.0 °F 47.7 °F 30.10 in Calm   2.0 mph 82 % 0.00 in 640.00 W/m2
09:39 53.3 °F 48.0 °F 30.10 in Calm   4.0 mph 82 % 0.00 in 652.00 W/m2
09:44 53.6 °F 47.9 °F 30.10 in South 2.0 mph 2.0 mph 81 % 0.00 in 666.00 W/m2
09:49 53.9 °F 48.2 °F 30.10 in Calm   4.0 mph 81 % 0.00 in 680.00 W/m2
09:54 54.2 °F 48.5 °F 30.10 in South 4.0 mph 7.0 mph 81 % 0.00 in 700.00 W/m2
09:59 54.5 °F 48.8 °F 30.10 in Calm   5.0 mph 81 % 0.00 in 715.00 W/m2
10:04 54.8 °F 48.8 °F 30.10 in Calm     80 % 0.00 in 740.00 W/m2
10:09 55.1 °F 49.0 °F 30.10 in Calm     80 % 0.00 in 698.00 W/m2
10:14 55.5 °F 49.4 °F 30.10 in Calm   5.0 mph 80 % 0.00 in 738.00 W/m2
10:19 55.9 °F 49.8 °F 30.10 in South 3.0 mph 5.0 mph 80 % 0.00 in 759.00 W/m2
10:24 56.2 °F 50.1 °F 30.10 in South 2.0 mph 5.0 mph 80 % 0.00 in 798.00 W/m2
10:29 56.6 °F 50.2 °F 30.10 in SSW 5.0 mph 7.0 mph 79 % 0.00 in 789.00 W/m2
10:34 56.9 °F 50.1 °F 30.10 in SSW 3.0 mph 7.0 mph 78 % 0.00 in 729.00 W/m2
10:39 57.2 °F 50.4 °F 30.10 in Calm   3.0 mph 78 % 0.00 in 619.00 W/m2
10:44 57.5 °F 50.7 °F 30.10 in SSW 3.0 mph 7.0 mph 78 % 0.00 in 729.00 W/m2
10:49 57.7 °F 50.9 °F 30.10 in Calm   6.0 mph 78 % 0.00 in 673.00 W/m2
10:54 58.0 °F 51.2 °F 30.10 in Calm   7.0 mph 78 % 0.00 in 661.00 W/m2
10:59 58.3 °F 51.5 °F 30.10 in SSW 4.0 mph 4.0 mph 78 % 0.00 in 701.00 W/m2
11:04 58.5 °F 51.3 °F 30.10 in SSW 6.0 mph 7.0 mph 77 % 0.00 in 856.00 W/m2
11:09 58.8 °F 51.6 °F 30.10 in SW 3.0 mph 6.0 mph 77 % 0.00 in 870.00 W/m2
11:14 59.0 °F 51.8 °F 30.10 in Calm   5.0 mph 77 % 0.00 in 872.00 W/m2
11:19 59.3 °F 52.5 °F 30.10 in SSW 7.0 mph 8.0 mph 78 % 0.00 in 874.00 W/m2
11:24 59.6 °F 52.0 °F 30.10 in South 3.0 mph 7.0 mph 76 % 0.00 in 854.00 W/m2
11:29 60.0 °F 51.7 °F 30.10 in Calm   6.0 mph 74 % 0.00 in 891.00 W/m2
11:34 60.3 °F 52.7 °F 30.10 in SW 2.0 mph 8.0 mph 76 % 0.00 in 888.00 W/m2
11:39 60.7 °F 52.4 °F 30.10 in SSW 4.0 mph 8.0 mph 74 % 0.00 in 900.00 W/m2
11:44 61.0 °F 52.3 °F 30.10 in SW 4.0 mph 7.0 mph 73 % 0.00 in 884.00 W/m2
11:50 61.2 °F 52.9 °F 30.10 in Calm   5.0 mph 74 % 0.00 in 916.00 W/m2
11:55 61.5 °F 52.4 °F 30.10 in SSE 6.0 mph 8.0 mph 72 % 0.00 in 854.00 W/m2
12:00 61.9 °F 53.2 °F 30.10 in SSW 2.0 mph 10.0 mph 73 % 0.00 in 921.00 W/m2
12:05 62.2 °F 52.3 °F 30.10 in SW 2.0 mph 10.0 mph 70 % 0.00 in 944.00 W/m2
12:10 62.3 °F 53.2 °F 30.10 in SSW 3.0 mph 8.0 mph 72 % 0.00 in 886.00 W/m2
12:15 62.4 °F 52.9 °F 30.10 in Calm   8.0 mph 71 % 0.00 in 925.00 W/m2
12:21 62.6 °F 53.5 °F 30.11 in South 1.0 mph 8.0 mph 72 % 0.00 in 933.00 W/m2
12:26 62.9 °F 53.0 °F 30.11 in SW 8.0 mph 10.0 mph 70 % 0.00 in 951.00 W/m2
12:31 63.3 °F 53.4 °F 30.11 in SSW 6.0 mph 9.0 mph 70 % 0.00 in 939.00 W/m2
12:36 63.8 °F 53.8 °F 30.11 in Calm   12.0 mph 70 % 0.00 in 939.00 W/m2
12:41 64.3 °F 53.5 °F 30.10 in SSW 5.0 mph 11.0 mph 68 % 0.00 in 940.00 W/m2
12:46 64.8 °F 53.6 °F 30.10 in South 9.0 mph 12.0 mph 67 % 0.00 in 942.00 W/m2
12:51 65.2 °F 52.7 °F 30.10 in Calm   11.0 mph 64 % 0.00 in 946.00 W/m2
12:56 65.5 °F 52.6 °F 30.10 in SSW 1.0 mph 12.0 mph 63 % 0.00 in 944.00 W/m2
13:01 65.8 °F 52.4 °F 30.10 in SSW 5.0 mph 12.0 mph 62 % 0.00 in 944.00 W/m2
13:06 66.0 °F 52.6 °F 30.10 in South 7.0 mph 13.0 mph 62 % 0.00 in 951.00 W/m2
13:11 66.3 °F 52.0 °F 30.10 in Calm   14.0 mph 60 % 0.00 in 958.00 W/m2
13:16 66.6 °F 52.3 °F 30.10 in WSW 2.0 mph 11.0 mph 60 % 0.00 in 954.00 W/m2
13:21 66.5 °F 53.1 °F 30.10 in South 2.0 mph 14.0 mph 62 % 0.00 in 888.00 W/m2
13:26 66.6 °F 53.2 °F 30.10 in SW 1.0 mph 12.0 mph 62 % 0.00 in 905.00 W/m2
13:31 66.5 °F 52.2 °F 30.10 in South 1.0 mph 15.0 mph 60 % 0.00 in 958.00 W/m2
13:36 66.4 °F 53.0 °F 30.10 in South 2.0 mph 4.0 mph 62 % 0.00 in 939.00 W/m2
13:41 66.3 °F 52.9 °F 30.10 in South 5.0 mph 8.0 mph 62 % 0.00 in 925.00 W/m2
13:46 66.2 °F 51.5 °F 30.10 in WSW 1.0 mph 16.0 mph 59 % 0.00 in 935.00 W/m2
13:51 66.2 °F 52.4 °F 30.10 in Calm   14.0 mph 61 % 0.00 in 875.00 W/m2
13:56 66.2 °F 52.4 °F 30.10 in Calm   11.0 mph 61 % 0.00 in 925.00 W/m2
14:01 66.3 °F 52.9 °F 30.10 in South 7.0 mph 14.0 mph 62 % 0.00 in 925.00 W/m2
14:06 66.5 °F 52.7 °F 30.10 in SW 5.0 mph 14.0 mph 61 % 0.00 in 912.00 W/m2
14:11 66.7 °F 52.8 °F 30.10 in WSW 5.0 mph 14.0 mph 61 % 0.00 in 909.00 W/m2
14:16 66.7 °F 52.8 °F 30.10 in WSW 1.0 mph 8.0 mph 61 % 0.00 in 905.00 W/m2
14:21 66.3 °F 52.9 °F 30.10 in SW 2.0 mph 13.0 mph 62 % 0.00 in 902.00 W/m2
14:26 65.9 °F 52.5 °F 30.10 in SW 8.0 mph 8.0 mph 62 % 0.00 in 911.00 W/m2
14:31 65.7 °F 52.3 °F 30.10 in WSW 7.0 mph 13.0 mph 62 % 0.00 in 816.00 W/m2
14:36 65.5 °F 52.6 °F 30.10 in SSW 9.0 mph 13.0 mph 63 % 0.00 in 837.00 W/m2
14:41 65.3 °F 52.4 °F 30.10 in SW 9.0 mph 14.0 mph 63 % 0.00 in 935.00 W/m2
14:46 64.8 °F 51.9 °F 30.10 in Calm   14.0 mph 63 % 0.00 in 761.00 W/m2
14:51 64.8 °F 51.9 °F 30.10 in Calm   2.0 mph 63 % 0.00 in 744.00 W/m2
14:56 64.9 °F 52.5 °F 30.10 in WSW 9.0 mph 14.0 mph 64 % 0.00 in 802.00 W/m2
15:01 64.7 °F 51.4 °F 30.10 in SW 7.0 mph 9.0 mph 62 % 0.00 in 807.00 W/m2
15:06 64.5 °F 52.1 °F 30.10 in SSW 7.0 mph 15.0 mph 64 % 0.00 in 527.00 W/m2
15:11 64.4 °F 52.0 °F 30.10 in WSW 2.0 mph 2.0 mph 64 % 0.00 in 668.00 W/m2
15:16 64.0 °F 51.6 °F 30.10 in SW 10.0 mph 10.0 mph 64 % 0.00 in 668.00 W/m2
15:21 63.7 °F 51.7 °F 30.10 in SW 3.0 mph 4.0 mph 65 % 0.00 in 810.00 W/m2
15:26 63.2 °F 51.2 °F 30.10 in SW 6.0 mph 6.0 mph 65 % 0.00 in 914.00 W/m2
15:28 63.1 °F 51.2 °F 30.10 in SSE 7.0 mph 13.0 mph 65 % 0.00 in 914.00 W/m2
15:33 62.9 °F 51.0 °F 30.10 in SW 7.0 mph 15.0 mph 65 % 0.00 in 675.00 W/m2
15:38 62.6 °F 50.7 °F 30.10 in Calm   9.0 mph 65 % 0.00 in 524.00 W/m2
15:43 62.4 °F 50.9 °F 30.10 in SSW 8.0 mph 17.0 mph 66 % 0.00 in 605.00 W/m2
15:48 62.3 °F 50.8 °F 30.10 in SW 8.0 mph 14.0 mph 66 % 0.00 in 635.00 W/m2
15:53 62.2 °F 51.1 °F 30.09 in SSW 8.0 mph 14.0 mph 67 % 0.00 in 684.00 W/m2
15:58 62.2 °F 51.1 °F 30.10 in WSW 4.0 mph 11.0 mph 67 % 0.00 in 752.00 W/m2
16:03 62.0 °F 50.5 °F 30.10 in South 7.0 mph 14.0 mph 66 % 0.00 in 823.00 W/m2
16:08 61.9 °F 50.8 °F 30.10 in SSE 5.0 mph 15.0 mph 67 % 0.00 in 190.00 W/m2
16:13 61.9 °F 50.8 °F 30.10 in South 9.0 mph 11.0 mph 67 % 0.00 in 717.00 W/m2
16:18 61.9 °F 50.8 °F 30.09 in Calm   10.0 mph 67 % 0.00 in 156.00 W/m2
16:23 61.8 °F 50.3 °F 30.10 in SW 2.0 mph 13.0 mph 66 % 0.00 in 684.00 W/m2
16:28 61.8 °F 50.3 °F 30.09 in SW 3.0 mph 12.0 mph 66 % 0.00 in 107.00 W/m2
16:33 61.8 °F 50.3 °F 30.09 in SSW 10.0 mph 11.0 mph 66 % 0.00 in 670.00 W/m2
16:38 61.8 °F 49.9 °F 30.09 in South 9.0 mph 9.0 mph 65 % 0.00 in 304.00 W/m2
16:43 61.8 °F 49.9 °F 30.09 in SW 6.0 mph 6.0 mph 65 % 0.00 in 643.00 W/m2
16:48 61.8 °F 49.9 °F 30.09 in South 7.0 mph 9.0 mph 65 % 0.00 in 633.00 W/m2
16:53 61.8 °F 50.3 °F 30.09 in South 4.0 mph 12.0 mph 66 % 0.00 in 613.00 W/m2
16:58 61.8 °F 50.3 °F 30.09 in Calm   6.0 mph 66 % 0.00 in 573.00 W/m2
17:03 61.8 °F 50.3 °F 30.09 in South 5.0 mph 13.0 mph 66 % 0.00 in 526.00 W/m2
17:08 61.8 °F 48.2 °F 30.09 in Calm   11.0 mph 61 % 0.00 in 510.00 W/m2
17:13 61.7 °F 48.6 °F 30.09 in South 7.0 mph 15.0 mph 62 % 0.00 in 490.00 W/m2
17:18 61.7 °F 48.6 °F 30.09 in Calm   11.0 mph 62 % 0.00 in 476.00 W/m2
17:23 61.6 °F 48.5 °F 30.09 in South 3.0 mph 12.0 mph 62 % 0.00 in 480.00 W/m2
17:28 61.5 °F 48.4 °F 30.09 in SSW 7.0 mph 12.0 mph 62 % 0.00 in 450.00 W/m2
17:33 61.5 °F 48.4 °F 30.09 in Calm   11.0 mph 62 % 0.00 in 431.00 W/m2
17:38 61.5 °F 48.4 °F 30.09 in SSW 6.0 mph 10.0 mph 62 % 0.00 in 408.00 W/m2
17:43 61.5 °F 48.4 °F 30.09 in South 9.0 mph 12.0 mph 62 % 0.00 in 401.00 W/m2
17:48 61.4 °F 48.3 °F 30.09 in South 6.0 mph 13.0 mph 62 % 0.00 in 383.00 W/m2
17:53 61.4 °F 49.1 °F 30.09 in SSW 9.0 mph 12.0 mph 64 % 0.00 in 403.00 W/m2
17:59 61.4 °F 49.1 °F 30.09 in Calm   8.0 mph 64 % 0.00 in 320.00 W/m2
18:04 61.3 °F 48.6 °F 30.09 in Calm   11.0 mph 63 % 0.00 in 338.00 W/m2
18:09 61.2 °F 48.5 °F 30.09 in SSW 5.0 mph 11.0 mph 63 % 0.00 in 323.00 W/m2
18:14 61.1 °F 48.8 °F 30.09 in Calm   2.0 mph 64 % 0.00 in 294.00 W/m2
18:19 61.0 °F 48.8 °F 30.09 in SW 2.0 mph 10.0 mph 64 % 0.00 in 279.00 W/m2
18:24 60.9 °F 48.7 °F 30.09 in Calm     64 % 0.00 in 267.00 W/m2
18:29 60.8 °F 48.6 °F 30.09 in SW 6.0 mph 9.0 mph 64 % 0.00 in 243.00 W/m2
18:34 60.5 °F 48.3 °F 30.09 in SW 5.0 mph 9.0 mph 64 % 0.00 in 237.00 W/m2
18:39 60.2 °F 48.4 °F 30.09 in Calm     65 % 0.00 in 211.00 W/m2
18:44 60.1 °F 48.7 °F 30.09 in Calm   1.0 mph 66 % 0.00 in 197.00 W/m2
18:49 60.0 °F 49.4 °F 30.09 in Calm   2.0 mph 68 % 0.00 in 183.00 W/m2
18:54 59.9 °F 49.3 °F 30.09 in SW 3.0 mph 10.0 mph 68 % 0.00 in 155.00 W/m2
18:59 59.8 °F 48.8 °F 30.09 in SW 5.0 mph 11.0 mph 67 % 0.00 in 132.00 W/m2
19:04 59.7 °F 48.3 °F 30.09 in Calm   8.0 mph 66 % 0.00 in 42.00 W/m2
19:09 59.6 °F 48.6 °F 30.09 in Calm     67 % 0.00 in 44.00 W/m2
19:14 59.4 °F 48.5 °F 30.09 in Calm   8.0 mph 67 % 0.00 in 40.00 W/m2
19:19 59.3 °F 48.8 °F 30.09 in Calm   1.0 mph 68 % 0.00 in 32.00 W/m2
19:24 59.1 °F 48.6 °F 30.09 in Calm     68 % 0.00 in 18.00 W/m2
19:29 59.0 °F 48.9 °F 30.09 in Calm     69 % 0.00 in 14.00 W/m2
19:34 58.8 °F 48.7 °F 30.09 in Calm     69 % 0.00 in 12.00 W/m2
19:39 58.6 °F 48.5 °F 30.09 in Calm     69 % 0.00 in 11.00 W/m2
19:44 58.5 °F 48.4 °F 30.09 in Calm     69 % 0.00 in 9.00 W/m2
19:49 58.3 °F 48.2 °F 30.09 in Calm     69 % 0.00 in 9.00 W/m2
19:54 58.1 °F 48.4 °F 30.09 in Calm     70 % 0.00 in 5.00 W/m2
19:59 57.9 °F 48.2 °F 30.09 in Calm     70 % 0.00 in 5.00 W/m2
20:04 57.8 °F 48.5 °F 30.09 in Calm     71 % 0.00 in 0.00 W/m2
20:09 57.6 °F 48.3 °F 30.09 in Calm     71 % 0.00 in 0.00 W/m2
20:14 57.5 °F 48.6 °F 30.09 in Calm     72 % 0.00 in 0.00 W/m2
20:19 57.3 °F 48.4 °F 30.09 in Calm     72 % 0.00 in 0.00 W/m2
20:24 57.2 °F 48.3 °F 30.09 in Calm     72 % 0.00 in 0.00 W/m2
20:29 57.1 °F 48.2 °F 30.09 in Calm     72 % 0.00 in 0.00 W/m2
20:34 56.9 °F 48.3 °F 30.09 in Calm     73 % 0.00 in 0.00 W/m2
20:39 56.8 °F 48.2 °F 30.09 in Calm     73 % 0.00 in 0.00 W/m2
20:44 56.8 °F 48.2 °F 30.09 in Calm     73 % 0.00 in 0.00 W/m2
20:49 56.7 °F 48.2 °F 30.09 in Calm     73 % 0.00 in 0.00 W/m2
20:54 56.6 °F 48.4 °F 30.10 in Calm   2.0 mph 74 % 0.00 in 0.00 W/m2
20:59 56.6 °F 48.4 °F 30.10 in Calm   8.0 mph 74 % 0.00 in 0.00 W/m2
21:04 56.5 °F 48.3 °F 30.10 in Calm     74 % 0.00 in 0.00 W/m2
21:09 56.4 °F 48.6 °F 30.10 in Calm     75 % 0.00 in 0.00 W/m2
21:14 56.4 °F 48.6 °F 30.09 in Calm   3.0 mph 75 % 0.00 in 0.00 W/m2
21:19 56.2 °F 48.8 °F 30.09 in Calm     76 % 0.00 in 0.00 W/m2
21:24 56.2 °F 49.1 °F 30.09 in SSW 1.0 mph 3.0 mph 77 % 0.00 in 0.00 W/m2
21:29 56.0 °F 48.9 °F 30.09 in Calm   2.0 mph 77 % 0.00 in 0.00 W/m2
21:34 55.9 °F 49.2 °F 30.09 in Calm     78 % 0.00 in 0.00 W/m2
21:39 55.8 °F 49.0 °F 30.09 in Calm     78 % 0.00 in 0.00 W/m2
21:44 55.7 °F 49.3 °F 30.09 in Calm     79 % 0.00 in 0.00 W/m2
21:49 55.6 °F 49.2 °F 30.09 in SSW 3.0 mph 3.0 mph 79 % 0.00 in 0.00 W/m2
21:54 55.5 °F 49.1 °F 30.09 in Calm     79 % 0.00 in 0.00 W/m2
21:59 55.5 °F 49.4 °F 30.09 in SSW 2.0 mph 4.0 mph 80 % 0.00 in 0.00 W/m2
22:04 55.4 °F 49.3 °F 30.09 in SSW 3.0 mph 7.0 mph 80 % 0.00 in 0.00 W/m2
22:09 55.3 °F 49.2 °F 30.09 in South 6.0 mph 7.0 mph 80 % 0.00 in 0.00 W/m2
22:14 55.2 °F 49.2 °F 30.09 in Calm   5.0 mph 80 % 0.00 in 0.00 W/m2
22:19 55.1 °F 49.4 °F 30.09 in Calm   3.0 mph 81 % 0.00 in 0.00 W/m2
22:24 55.1 °F 49.4 °F 30.09 in Calm     81 % 0.00 in 0.00 W/m2
22:30 55.0 °F 49.3 °F 30.09 in Calm     81 % 0.00 in 0.00 W/m2
22:35 54.9 °F 49.2 °F 30.09 in SW 2.0 mph 7.0 mph 81 % 0.00 in 0.00 W/m2
22:40 54.8 °F 49.1 °F 30.09 in SSW 4.0 mph 7.0 mph 81 % 0.00 in 0.00 W/m2
22:45 54.6 °F 48.9 °F 30.09 in SW 1.0 mph 7.0 mph 81 % 0.00 in 0.00 W/m2
22:50 54.4 °F 48.7 °F 30.09 in Calm   6.0 mph 81 % 0.00 in 0.00 W/m2
22:55 54.3 °F 48.6 °F 30.09 in Calm   3.0 mph 81 % 0.00 in 0.00 W/m2
23:00 54.1 °F 48.4 °F 30.09 in SW 3.0 mph 7.0 mph 81 % 0.00 in 0.00 W/m2
23:05 53.9 °F 48.5 °F 30.09 in Calm   5.0 mph 82 % 0.00 in 0.00 W/m2
23:10 53.7 °F 48.3 °F 30.09 in SW 3.0 mph 7.0 mph 82 % 0.00 in 0.00 W/m2
23:15 53.6 °F 48.2 °F 30.09 in Calm   6.0 mph 82 % 0.00 in 0.00 W/m2
23:20 53.3 °F 48.3 °F 30.09 in SW 5.0 mph 10.0 mph 83 % 0.00 in 0.00 W/m2
23:25 53.0 °F 48.0 °F 30.09 in Calm   11.0 mph 83 % 0.00 in 0.00 W/m2
23:30 52.8 °F 47.8 °F 30.09 in SW 2.0 mph 9.0 mph 83 % 0.00 in 0.00 W/m2
23:35 52.7 °F 47.7 °F 30.09 in SW 4.0 mph 7.0 mph 83 % 0.00 in 0.00 W/m2
23:40 52.5 °F 47.8 °F 30.09 in Calm   6.0 mph 84 % 0.00 in 0.00 W/m2
23:45 52.4 °F 47.7 °F 30.09 in Calm   8.0 mph 84 % 0.00 in 0.00 W/m2
23:50 52.1 °F 47.4 °F 30.09 in SW 8.0 mph 10.0 mph 84 % 0.00 in 0.00 W/m2
23:55 51.9 °F 47.5 °F 30.09 in Calm   7.0 mph 85 % 0.00 in 0.00 W/m2
Juneau County Weather
Compliments of Weather Underground - 4.5 mb
 WU-history PHP script courtesy of   Juneau County Weather.
powered by Cumulus v1.9.3 (1059)
Ambient Weather VWS v14.00
Top Contact Website Map Copyright © 2007 - 2018 Foresthillweather.com Never base important decisions on this or any weather information obtained from the Internet